This is the latest recevied weather packets stored in our database for station/object KM6RDV. If no packets are shown the sender has not sent any weather packets the latest 10 day(s).
| Time | Temp. | Humidity | Pressure | Rain* | Wind** | Luminosity | Snow |
|---|---|---|---|---|---|---|---|
| 1777500619 | 22.22° C | 52% | 1019.7 hPa | 0 mm | - | 868 W/m² | - |
| 1777500017 | 22.22° C | 52% | 1019.7 hPa | 0 mm | - | 892 W/m² | - |
| 1777497616 | 22.22° C | 54% | 1020.1 hPa | 0 mm | - | 967 W/m² | - |
| 1777497019 | 22.22° C | 54% | 1020 hPa | 0 mm | - | 978 W/m² | - |
| 1777493418 | 21.11° C | 59% | 1020.2 hPa | 0 mm | - | 1015 W/m² | - |
| 1777489223 | 20° C | 61% | 1021.3 hPa | 0 mm | - | 968 W/m² | - |
| 1777487419 | 19.44° C | 62% | 1021.5 hPa | 0 mm | - | 915 W/m² | - |
| 1777478418 | 16.67° C | 68% | 1022 hPa | 0 mm | - | 459 W/m² | - |
| 1777470618 | 10° C | 89% | 1021.5 hPa | 0 mm | - | 34 W/m² | - |
| 1777467017 | 10° C | 87% | 1021.1 hPa | 0 mm | - | 0 W/m² | - |
| 1777464618 | 10.56° C | 86% | 1021.4 hPa | 0 mm | - | 0 W/m² | - |
| 1777460435 | 11.11° C | 84% | 1021.8 hPa | 0 mm | - | 0 W/m² | - |
| 1777458639 | 11.67° C | 84% | 1021.9 hPa | 0 mm | - | 0 W/m² | - |
| 1777455018 | 11.67° C | 85% | 1022.1 hPa | 0 mm | - | 0 W/m² | - |
| 1777451419 | 12.78° C | 81% | 1022.5 hPa | 0 mm | - | 0 W/m² | - |
| 1777449617 | 12.78° C | 81% | 1022.5 hPa | 0 mm | - | 0 W/m² | - |
| 1777443021 | 13.33° C | 70% | 1022.2 hPa | 0 mm | - | 0 W/m² | - |
| 1777440636 | 13.89° C | 70% | 1022.1 hPa | 0 mm | - | 0 W/m² | - |
| 1777440018 | 13.89° C | 70% | 1022.1 hPa | 0 mm | - | 0 W/m² | - |
| 1777432820 | 15.56° C | 66% | 1021.4 hPa | 0 mm | - | - | - |
| 1777432218 | 15.56° C | 68% | 1021.4 hPa | 0 mm | - | 1 W/m² | - |
| 1777424418 | 19.44° C | 52% | 1021.2 hPa | 0 mm | - | 292 W/m² | - |
| 1777420218 | 18.89° C | 57% | 1021.1 hPa | 0 mm | - | 553 W/m² | - |
| 1777416621 | 20.56° C | 55% | 1021 hPa | 0 mm | - | 760 W/m² | - |
| 1777413015 | 20.56° C | 52% | 1021.6 hPa | 0 mm | - | 922 W/m² | - |
* Rain latest hour (hover to see other rain measurements)
** Current wind speed in m/s (hover to see current wind gust speed)